Time;durP1;ratioP1;P1;durP2;ratioP2;P2;SDS_P1;SDS_P2;PMS_P1;PMS_P2;Temp;Humidity;BMP_temperature;BMP_pressure;BME280_temperature;BME280_humidity;BME280_pressure;Samples;Min_cycle;Max_cycle;Signal;HPM_P1;HPM_P2
2022/10/06 00:07:45;;;;;;;5.00;4.60;;;;;14.20;99704.00;;;;16641721;28;20218;-49
2022/10/06 00:15:48;;;;;;;4.87;4.23;;;;;14.30;99705.00;;;;16648035;28;20252;-49
2022/10/06 00:23:51;;;;;;;9.50;4.70;;;;;14.10;99712.00;;;;16641905;28;20251;-49
2022/10/06 00:31:54;;;;;;;5.80;5.20;;;;;14.10;99716.00;;;;16647415;28;20221;-49
2022/10/06 00:39:58;;;;;;;6.57;5.07;;;;;14.10;99719.00;;;;16663650;28;20213;-49
2022/10/06 00:48:04;;;;;;;5.10;4.70;;;;;14.00;99733.00;;;;16640265;28;20234;-49
2022/10/06 00:56:09;;;;;;;6.13;4.20;;;;;14.30;99729.00;;;;16657875;28;20312;-49
2022/10/06 01:04:13;;;;;;;7.93;5.27;;;;;14.20;99739.00;;;;16658924;28;20985;-49
2022/10/06 01:12:17;;;;;;;7.10;5.60;;;;;14.20;99737.00;;;;16667130;28;20232;-49
2022/10/06 01:20:21;;;;;;;5.20;4.70;;;;;14.60;99744.00;;;;16653668;28;20524;-49
2022/10/06 01:28:25;;;;;;;4.63;4.20;;;;;14.70;99737.00;;;;16659576;28;20224;-49
2022/10/06 01:36:27;;;;;;;7.60;4.67;;;;;14.50;99746.00;;;;16653373;28;20217;-49
2022/10/06 01:44:31;;;;;;;8.93;5.27;;;;;14.60;99752.00;;;;16646971;28;20213;-49
2022/10/06 01:52:34;;;;;;;4.97;4.57;;;;;14.20;99759.00;;;;16654992;28;20252;-49
2022/10/06 02:00:38;;;;;;;6.20;4.93;;;;;13.90;99770.00;;;;16655031;28;20563;-49
2022/10/06 02:08:41;;;;;;;6.73;4.40;;;;;14.10;99773.00;;;;16654005;28;20228;-49
2022/10/06 02:16:45;;;;;;;4.50;4.10;;;;;13.90;99775.00;;;;16642448;28;20229;-49
2022/10/06 02:24:48;;;;;;;5.80;4.40;;;;;14.20;99775.00;;;;16648379;28;20252;-49
2022/10/06 02:32:52;;;;;;;5.53;4.37;;;;;14.00;99792.00;;;;16651582;28;20606;-49
2022/10/06 02:40:56;;;;;;;4.60;4.20;;;;;13.90;99810.00;;;;16665100;28;20209;-50
2022/10/06 02:49:00;;;;;;;6.23;4.80;;;;;14.50;99824.00;;;;16638440;28;20222;-49
2022/10/06 02:57:03;;;;;;;5.30;4.60;;;;;14.50;99843.00;;;;16646699;28;20219;-48
2022/10/06 03:05:07;;;;;;;5.23;4.67;;;;;13.70;99842.00;;;;16645469;28;20224;-48
2022/10/06 03:13:10;;;;;;;4.63;4.03;;;;;13.90;99839.00;;;;16653025;28;20223;-48
2022/10/06 03:21:14;;;;;;;4.80;4.40;;;;;14.10;99860.00;;;;16690068;22;20240;-74
2022/10/06 03:29:17;;;;;;;4.53;4.23;;;;;13.60;99885.00;;;;16627278;28;20240;-75
2022/10/06 03:37:28;;;;;;;7.03;5.10;;;;;14.60;99888.00;;;;16654439;28;20226;-75
2022/10/06 03:45:31;;;;;;;6.83;5.43;;;;;14.40;99903.00;;;;16642520;28;20222;-75
2022/10/06 03:53:35;;;;;;;6.80;5.90;;;;;14.60;99915.00;;;;16653796;28;20718;-74
2022/10/06 04:01:41;;;;;;;6.37;4.77;;;;;14.80;99936.00;;;;16635213;28;20224;-74
2022/10/06 04:09:47;;;;;;;9.63;5.10;;;;;14.80;99942.00;;;;16666516;28;20316;-75
2022/10/06 04:17:51;;;;;;;7.67;6.50;;;;;14.70;99950.00;;;;16657555;28;20440;-74
2022/10/06 04:26:01;;;;;;;6.50;5.40;;;;;15.00;99952.00;;;;16671239;28;20224;-77
2022/10/06 04:34:05;;;;;;;8.97;5.67;;;;;15.10;99962.00;;;;16640270;28;20373;-74
2022/10/06 04:42:09;;;;;;;7.73;4.53;;;;;14.60;99972.00;;;;16648443;28;20308;-74
2022/10/06 04:50:14;;;;;;;6.37;5.20;;;;;15.80;99969.00;;;;16655792;22;20369;-50
2022/10/06 04:58:38;;;;;;;8.73;7.90;;;;;15.90;99973.00;;;;16571350;28;20241;-48
2022/10/06 05:06:42;;;;;;;6.73;6.03;;;;;15.80;99981.00;;;;16568502;28;20228;-47
2022/10/06 05:14:47;;;;;;;7.27;5.30;;;;;15.00;99989.00;;;;16573770;28;20807;-47
2022/10/06 05:22:50;;;;;;;5.67;5.10;;;;;16.10;99992.00;;;;16560570;28;20199;-47
2022/10/06 05:31:01;;;;;;;6.63;5.90;;;;;15.60;100015.00;;;;16544004;28;20252;-47
2022/10/06 05:39:05;;;;;;;6.70;5.83;;;;;15.80;100013.00;;;;16559387;28;20225;-47
2022/10/06 05:47:14;;;;;;;7.23;6.60;;;;;15.90;100037.00;;;;16563295;28;20229;-45
2022/10/06 05:55:17;;;;;;;19.53;15.60;;;;;15.20;100042.00;;;;16566502;28;20227;-46
2022/10/06 06:03:21;;;;;;;10.30;6.80;;;;;15.60;100053.00;;;;16598802;28;20224;-45
2022/10/06 06:11:26;;;;;;;8.63;5.63;;;;;16.10;100058.00;;;;16586798;28;20328;-47
2022/10/06 06:19:31;;;;;;;6.40;5.70;;;;;16.40;100068.00;;;;16543044;28;20238;-46
2022/10/06 06:27:34;;;;;;;7.30;6.50;;;;;16.30;100080.00;;;;16548249;28;20230;-46
2022/10/06 06:35:39;;;;;;;7.70;6.60;;;;;16.60;100094.00;;;;16563397;28;20241;-46
2022/10/06 06:43:44;;;;;;;6.83;5.97;;;;;16.70;100101.00;;;;16559703;28;20199;-46
2022/10/06 06:52:08;;;;;;;8.37;7.10;;;;;16.30;100123.00;;;;16546683;28;20229;-47
2022/10/06 07:00:12;;;;;;;10.63;8.40;;;;;16.60;100129.00;;;;16568768;28;20309;-46
2022/10/06 07:08:19;;;;;;;9.20;7.20;;;;;16.90;100137.00;;;;16552657;28;20241;-47
2022/10/06 07:33:05;;;;;;;9.10;6.00;;;;;17.70;100183.00;;;;16537921;28;20287;-48
2022/10/06 07:41:10;;;;;;;9.10;6.00;;;;;18.40;100176.00;;;;16556238;28;20800;-47
2022/10/06 07:49:13;;;;;;;11.23;5.20;;;;;17.20;100177.00;;;;16559798;28;20223;-47
2022/10/06 07:57:17;;;;;;;6.97;5.37;;;;;17.30;100183.00;;;;16556258;28;20714;-47
2022/10/06 08:05:20;;;;;;;7.30;5.40;;;;;17.30;100189.00;;;;16539862;28;20270;-47
2022/10/06 08:13:24;;;;;;;16.17;5.23;;;;;18.20;100201.00;;;;16581388;28;20884;-47
2022/10/06 08:21:28;;;;;;;11.97;6.63;;;;;19.10;100199.00;;;;16553921;28;20761;-46
2022/10/06 08:29:32;;;;;;;12.10;6.43;;;;;19.00;100205.00;;;;16545277;28;20699;-45
2022/10/06 08:37:34;;;;;;;8.93;5.50;;;;;19.00;100224.00;;;;16547936;28;20316;-47
2022/10/06 08:45:42;;;;;;;14.90;6.53;;;;;19.60;100214.00;;;;16534353;28;20687;-47
2022/10/06 08:53:50;;;;;;;14.90;7.27;;;;;20.20;100225.00;;;;16556573;28;20227;-48
2022/10/06 09:01:54;;;;;;;12.53;7.13;;;;;19.80;100240.00;;;;16561294;28;20287;-46
2022/10/06 09:10:07;;;;;;;10.80;4.27;;;;;20.20;100240.00;;;;16553324;28;20232;-47
2022/10/06 09:18:15;;;;;;;4.73;4.20;;;;;20.10;100244.00;;;;16569351;23;20257;-49
2022/10/06 09:26:21;;;;;;;6.17;2.80;;;;;19.90;100253.00;;;;16507501;28;20738;-48
2022/10/06 09:34:28;;;;;;;3.30;1.80;;;;;19.30;100259.00;;;;16409348;28;20320;-49
2022/10/06 09:42:34;;;;;;;2.53;1.93;;;;;19.70;100272.00;;;;16390552;28;20834;-48
2022/10/06 09:50:38;;;;;;;2.07;1.43;;;;;19.90;100264.00;;;;16395405;28;20253;-48
2022/10/06 09:58:40;;;;;;;4.07;2.20;;;;;21.00;100257.00;;;;16397349;28;20228;-49
2022/10/06 10:06:44;;;;;;;4.30;2.00;;;;;20.50;100267.00;;;;16387516;28;20263;-49
2022/10/06 10:14:47;;;;;;;7.10;2.50;;;;;21.00;100268.00;;;;16383022;28;20737;-49
2022/10/06 10:22:51;;;;;;;3.80;1.97;;;;;20.50;100268.00;;;;16388985;28;20280;-48
2022/10/06 10:30:59;;;;;;;6.63;2.20;;;;;20.40;100267.00;;;;16397958;28;20759;-49
2022/10/06 10:39:11;;;;;;;5.10;2.03;;;;;20.10;100271.00;;;;16388979;28;20221;-48
2022/10/06 10:47:17;;;;;;;3.07;1.90;;;;;20.20;100268.00;;;;16396749;28;20198;-49
2022/10/06 10:55:25;;;;;;;5.20;1.73;;;;;20.90;100274.00;;;;16383976;28;20240;-48
2022/10/06 11:03:29;;;;;;;5.30;1.80;;;;;21.50;100249.00;;;;16374849;28;20225;-49
2022/10/06 11:11:49;;;;;;;3.97;1.70;;;;;21.40;100254.00;;;;16382203;28;20265;-48
2022/10/06 11:19:57;;;;;;;5.23;1.70;;;;;22.00;100246.00;;;;16386823;28;20249;-48
2022/10/06 11:28:07;;;;;;;2.80;1.67;;;;;22.80;100241.00;;;;16374573;28;20696;-49
2022/10/06 11:36:15;;;;;;;2.70;1.40;;;;;22.00;100240.00;;;;16382191;28;20224;-49
2022/10/06 11:44:26;;;;;;;4.80;1.90;;;;;23.20;100227.00;;;;16387808;28;20697;-49
2022/10/06 11:52:55;;;;;;;3.17;1.70;;;;;24.60;100218.00;;;;16388297;28;20292;-49
2022/10/06 12:01:00;;;;;;;5.10;2.40;;;;;21.50;100234.00;;;;16390545;28;20236;-49
2022/10/06 12:09:11;;;;;;;6.47;2.40;;;;;21.40;100228.00;;;;16386159;28;20213;-49
2022/10/06 12:17:19;;;;;;;6.77;2.10;;;;;22.40;100230.00;;;;16398411;28;20222;-49
2022/10/06 12:25:26;;;;;;;5.23;2.50;;;;;22.40;100216.00;;;;16390242;28;20206;-49
2022/10/06 12:33:38;;;;;;;7.67;2.13;;;;;21.70;100225.00;;;;16397299;28;20608;-48
2022/10/06 12:42:00;;;;;;;7.50;2.20;;;;;22.00;100216.00;;;;16387232;28;20221;-49
2022/10/06 12:50:06;;;;;;;7.80;2.10;;;;;23.00;100209.00;;;;16389911;28;20384;-48
2022/10/06 12:58:17;;;;;;;3.50;1.73;;;;;24.50;100203.00;;;;16402995;28;20251;-47
2022/10/06 13:06:23;;;;;;;3.97;2.13;;;;;24.20;100196.00;;;;16403766;28;20202;-48
2022/10/06 13:14:25;;;;;;;3.83;2.00;;;;;23.70;100194.00;;;;16390268;28;20743;-48
2022/10/06 13:22:29;;;;;;;3.40;1.70;;;;;23.90;100200.00;;;;16400090;28;20231;-48
2022/10/06 13:30:31;;;;;;;4.80;2.30;;;;;22.90;100201.00;;;;16414139;28;20227;-48
2022/10/06 13:38:36;;;;;;;5.20;1.90;;;;;23.00;100198.00;;;;16399937;28;20792;-48
2022/10/06 13:46:41;;;;;;;3.30;1.50;;;;;23.20;100191.00;;;;16398530;28;20201;-49
2022/10/06 13:54:49;;;;;;;4.13;2.20;;;;;22.10;100198.00;;;;16383466;28;20663;-47
2022/10/06 14:02:54;;;;;;;11.57;3.10;;;;;23.20;100194.00;;;;16393922;28;20228;-48
2022/10/06 14:10:59;;;;;;;6.20;2.77;;;;;23.70;100188.00;;;;16396256;28;20217;-49
2022/10/06 14:19:03;;;;;;;8.50;2.40;;;;;23.60;100183.00;;;;16405913;28;20320;-49
2022/10/06 14:27:07;;;;;;;6.17;2.27;;;;;22.60;100184.00;;;;16394224;28;20206;-48
2022/10/06 14:35:11;;;;;;;5.17;2.17;;;;;23.70;100176.00;;;;16385383;28;20235;-48
2022/10/06 14:43:15;;;;;;;7.37;2.10;;;;;25.70;100167.00;;;;16386092;28;20845;-48
2022/10/06 14:51:17;;;;;;;6.43;1.80;;;;;26.20;100156.00;;;;16393427;28;20601;-48
2022/10/06 14:59:23;;;;;;;5.47;2.20;;;;;24.00;100160.00;;;;16401670;28;20699;-48
2022/10/06 15:15:48;;;;;;;4.80;2.17;;;;;21.80;100165.00;;;;16395266;28;20611;-48
2022/10/06 15:23:56;;;;;;;5.03;2.23;;;;;21.70;100161.00;;;;16392223;28;20232;-48
2022/10/06 15:32:01;;;;;;;6.43;1.97;;;;;21.90;100163.00;;;;16399913;28;20210;-48
2022/10/06 15:40:04;;;;;;;5.63;2.50;;;;;22.30;100160.00;;;;16384255;28;20217;-47
2022/10/06 15:48:09;;;;;;;4.13;2.47;;;;;22.70;100153.00;;;;16386460;28;20262;-48
2022/10/06 15:56:12;;;;;;;3.80;2.23;;;;;23.10;100143.00;;;;16384758;28;20232;-49
2022/10/06 16:04:26;;;;;;;6.80;2.30;;;;;23.40;100134.00;;;;16433071;23;20236;-45
2022/10/06 16:12:31;;;;;;;4.50;2.37;;;;;22.90;100142.00;;;;16449530;28;20344;-45
2022/10/06 16:20:35;;;;;;;9.17;3.40;;;;;21.90;100148.00;;;;16441671;28;20299;-44
2022/10/06 16:28:37;;;;;;;5.73;2.53;;;;;20.90;100165.00;;;;16447954;28;20217;-46
2022/10/06 16:36:41;;;;;;;6.87;2.43;;;;;19.80;100169.00;;;;16447658;28;20307;-45
2022/10/06 16:44:44;;;;;;;8.60;2.60;;;;;19.00;100183.00;;;;16434196;28;20253;-45
2022/10/06 16:52:47;;;;;;;5.30;2.77;;;;;18.90;100180.00;;;;16441476;28;20705;-45
2022/10/06 17:00:56;;;;;;;6.20;3.33;;;;;18.60;100183.00;;;;16438437;28;20311;-44
2022/10/06 17:09:00;;;;;;;5.53;2.57;;;;;18.90;100182.00;;;;16443208;28;20209;-44
2022/10/06 17:17:05;;;;;;;5.53;3.20;;;;;19.00;100183.00;;;;16450551;28;20224;-43
2022/10/06 17:25:12;;;;;;;6.33;3.23;;;;;19.00;100184.00;;;;16451921;28;21427;-47
2022/10/06 17:33:15;;;;;;;12.07;3.50;;;;;17.60;100201.00;;;;16478661;28;20248;-47
2022/10/06 17:41:21;;;;;;;8.03;4.00;;;;;17.60;100205.00;;;;16442478;28;20223;-47
2022/10/06 17:49:24;;;;;;;3.83;3.43;;;;;17.60;100204.00;;;;16455384;28;20207;-47
2022/10/06 17:57:29;;;;;;;6.90;4.10;;;;;17.60;100202.00;;;;16463429;28;20305;-47
2022/10/06 18:05:31;;;;;;;6.97;3.50;;;;;17.30;100190.00;;;;16456383;28;20603;-47
2022/10/06 18:13:35;;;;;;;7.53;3.97;;;;;17.00;100194.00;;;;16447750;28;20252;-47
2022/10/06 18:21:39;;;;;;;8.60;5.40;;;;;17.10;100189.00;;;;16439816;28;20231;-47
2022/10/06 18:29:43;;;;;;;11.83;3.87;;;;;16.70;100206.00;;;;16445664;28;20228;-47
2022/10/06 18:37:45;;;;;;;9.57;3.50;;;;;16.70;100192.00;;;;16443617;28;20224;-47
2022/10/06 18:54:11;;;;;;;7.43;5.20;;;;;16.70;100184.00;;;;16453378;28;20228;-47
2022/10/06 19:02:15;;;;;;;5.73;3.20;;;;;16.50;100179.00;;;;16416359;28;1161933;-47
2022/10/06 19:10:18;;;;;;;16.53;4.10;;;;;16.40;100188.00;;;;16457487;28;20209;-47
2022/10/06 19:18:22;;;;;;;7.60;4.20;;;;;16.20;100194.00;;;;16458929;28;20224;-47
2022/10/06 19:26:25;;;;;;;8.00;4.30;;;;;16.20;100190.00;;;;16454723;28;20215;-47
2022/10/06 19:34:29;;;;;;;8.80;3.27;;;;;15.90;100193.00;;;;16437743;28;20232;-47
2022/10/06 19:42:47;;;;;;;6.30;3.83;;;;;15.80;100195.00;;;;16450597;28;20230;-47
2022/10/06 19:50:51;;;;;;;7.03;4.63;;;;;16.00;100189.00;;;;16464049;28;20755;-48
2022/10/06 19:58:53;;;;;;;5.10;3.80;;;;;15.80;100193.00;;;;16469793;28;20236;-48
2022/10/06 20:07:00;;;;;;;7.50;3.33;;;;;15.70;100197.00;;;;16454742;28;20216;-48
2022/10/06 20:15:03;;;;;;;6.00;3.83;;;;;15.60;100187.00;;;;16452056;28;20720;-48
2022/10/06 20:23:07;;;;;;;6.57;4.57;;;;;15.40;100192.00;;;;16448928;28;20749;-47
2022/10/06 20:31:16;;;;;;;8.00;4.10;;;;;15.30;100191.00;;;;16449512;28;20300;-48
2022/10/06 20:47:42;;;;;;;6.30;4.37;;;;;15.00;100189.00;;;;16457921;28;20224;-48
2022/10/06 20:55:52;;;;;;;4.93;4.43;;;;;15.30;100190.00;;;;16463279;28;20223;-48
2022/10/06 21:03:55;;;;;;;6.53;4.33;;;;;15.10;100193.00;;;;16467988;28;20238;-48
2022/10/06 21:11:58;;;;;;;7.13;3.70;;;;;15.00;100187.00;;;;16452628;28;20226;-48
2022/10/06 21:20:01;;;;;;;7.93;4.40;;;;;15.20;100170.00;;;;16445813;28;20551;-47
2022/10/06 21:28:05;;;;;;;9.93;4.60;;;;;15.10;100178.00;;;;16475078;28;20205;-48
2022/10/06 21:36:10;;;;;;;5.83;4.00;;;;;14.90;100166.00;;;;16461802;28;20233;-47
2022/10/06 21:44:15;;;;;;;6.70;4.50;;;;;14.90;100161.00;;;;16451300;28;20234;-48
2022/10/06 21:52:18;;;;;;;4.97;3.70;;;;;15.20;100150.00;;;;16464802;28;20316;-48
2022/10/06 22:00:21;;;;;;;7.00;4.33;;;;;15.00;100139.00;;;;16468764;28;20212;-48
2022/10/06 22:08:24;;;;;;;5.20;3.97;;;;;14.90;100130.00;;;;16503719;23;20243;-73
2022/10/06 22:16:30;;;;;;;9.47;4.67;;;;;14.60;100125.00;;;;16453266;28;20239;-74
2022/10/06 22:24:32;;;;;;;7.07;3.80;;;;;14.50;100124.00;;;;16456091;28;20708;-73
2022/10/06 22:32:36;;;;;;;8.50;4.30;;;;;14.40;100130.00;;;;16455350;28;20263;-73
2022/10/06 22:40:38;;;;;;;8.67;4.77;;;;;14.60;100122.00;;;;16456054;28;20231;-73
2022/10/06 22:48:42;;;;;;;6.87;4.07;;;;;14.40;100121.00;;;;16453534;28;20366;-73
2022/10/06 22:56:45;;;;;;;8.40;4.40;;;;;14.50;100107.00;;;;16452810;28;20236;-73
2022/10/06 23:04:48;;;;;;;7.33;3.60;;;;;14.50;100088.00;;;;16453897;28;20211;-74
2022/10/06 23:12:54;;;;;;;4.83;4.20;;;;;14.70;100079.00;;;;16458145;28;20233;-74
2022/10/06 23:21:04;;;;;;;8.07;4.20;;;;;14.60;100074.00;;;;16454744;28;20590;-74
2022/10/06 23:29:07;;;;;;;5.97;3.80;;;;;14.50;100056.00;;;;16452884;28;20234;-74
2022/10/06 23:37:10;;;;;;;8.33;4.23;;;;;14.50;100050.00;;;;16445609;28;20305;-74
2022/10/06 23:45:13;;;;;;;4.40;3.47;;;;;14.40;100065.00;;;;16451852;28;20351;-73
2022/10/06 23:53:17;;;;;;;5.23;3.80;;;;;14.60;100047.00;;;;16450691;28;20239;-74
